Scroll down
FLIGHT INFORMATION
Federal Express (FedEx)

FDX9796

At Arrival Gate

EHAM
 LIMC
DATE: 2021-02-13
GATE: S79
GATE DEPARTURE: 20:17
TAKEOFF: 20:30
DATE: 2021-02-13
GATE:  -
LANDING: 21:48
GATE ARRIVAL: 21:54
FLIGHT DATA
Crew: 
Speed: 
462 kts
Altitude: 
31,010 ft
Stage Length: 
430.1 nm
Block Time: 
1.5 hrs
Flight Time: 
1.3 hrs
Fuel Used: 
18,330 lb
Cleared Route: EHAM EDUPO NAPRO DEPAD AMOSU MISGO COL RIDSU ABUKA KRH EPIXU NATOR TITIX TRA DITON BASGO AKASU RIXUV LIMC
TRACK DATA
50,000 ft 1,000 kts
AIRCRAFT INFO AND CUMULATIVE STATS
Aircraft Type: 
B77LF
Registration: 
SELCAL: 
FRHQ
MSN/LN: 
37727 / 884
Total Flights: 
3
Total Block Time: 
25.7 hrs
Total Flight Time: 
25 hrs
Total Fuel Used: 
359,287 lb
DATALINK LOG | Newest first | Current as of: 2022-05-16 09:07:59
LABEL SEQUENCE CONTENT Dn/Up
QD183521:54 11.3▼ Dn
QC122921:48▼ Dn
2U1838LIMC 132250Z 03003KT CAVOK M05/M09 Q1035 NOSIG▲ Up
2S1838LIMC▼ Dn
QB541720:30▼ Dn
QA410520:17 29.9▼ Dn
A31956CLEARED TO LIMC VIA EDUPO Z739 MISGO COL RIDSU L607 abuka un850 nator n850 tra uz670 basgo z424 rixuv. SQUAWK 2501.▲ Up
2U1955LIME 132150Z 03002KT 9999 BKN040 M02/M07 Q1034 NOSIG▲ Up
2U1954LIMC 132150Z VRB01KT CAVOK M04/M09 Q1034 NOSIG▲ Up
2U1954EHAM 132155Z 12012KT CAVOK M04/M11 Q1038 R99/95 NOSIG▲ Up
2S1953EHAM LIMC LIME▼ Dn
B31946EHAM LIMC FDX9796 N856FD ▼ Dn
Q01644[LINK ACK]▲ Up
Q01643[LINK TEST]▼ Dn


AIRCRAFT HISTORY
FLIGHT DATE FLIGHT NO. ORIGIN DESTINATION CLEARED ROUTE BLOCK TIME FLIGHT TIME FUEL USED PILOT
2021-02-14FDX9796LIMC RKSI LIMC SRN DESIP PEXUG LEGLO ORI OSKOR NEVNI MALUG NAVTI SOPAV BAVOK ABERO OGARA TOBLO ABUTO UNIGA MAKOD TALID UBONA BEPLU OKLOT RONUM UMSIS OLBEG RUTUB GEDNI AMUTI ST WGD TUSAB NOKLI DUBOS OLINU UP ZG OBATA TUGLA ATR BASPU EPOLI LANIN ODPUT LUKET UDATO RUGUS ARSAN ATRIK BALPI ABIGU ULRIP SUBOL ARMIK DZG AGAKO MADEV AGARO BUSAR GOMAL BURID GILAK SARIN TCH PIBIG SALMO OMKEN IKARA UGPEL VARMI FKG ADPET ESGIV DAKPA RIMDU BATUS LIKMI GOVSA JNQ GOBIN ATBUG DKO EGILO DUDIL MOSPA TOREL BAXOD UBSEV URDOG UXODI LUGVU UPSUR BIKUT GUVBA HUR SOTMU LADIX CG MUGLO OTBUL VAPGU MUDOT ORAVA UNSEK ALARA MAKNO NUNDU DOBGA POVAG SANKO OBDIS DONVO AGAVO RILRO GONAV BODOL REBIT RKSI11.4 hrs11 hrs135,314 lbAllan Burek
2021-02-13FDX9796EHAM LIMC EHAM EDUPO NAPRO DEPAD AMOSU MISGO COL RIDSU ABUKA KRH EPIXU NATOR TITIX TRA DITON BASGO AKASU RIXUV LIMC1.5 hrs1.3 hrs18,330 lbAllan Burek
2021-02-12FDX9733RKSI EHAM RKSI BINIL ANSIM NOGON OLBIM AGAVO IKEKA SEBLI WEH FZ TEKAM HCH DOVIV VIDEL TEMAD DUMAP CG LADIX VYK PEGSO IDGIS REVSI BONLU ADBES VAGBI SUGDO EKETA GODON OMKAK LEBOM APOGO LUVES MIMOK YHD NIRUV OPULI YBL GOBIN JNQ GOVSA NUKTI HAM IRPEP DUBUV DUMAM FKG VARMI UGPEL IKARA OMKEN SALMO PIBIG TCH SARIN GILAK BURID GOMAL BUSAR AGARO MADEV AGAKO DZG ARMIK SUBOL ULRIP ABIGU BALPI ATRIK ARSAN RUGUS UDATO LUKET ODPUT LANIN EPOLI BASPU ATR TUGLA OBATA ZG UP BASKO LIDUS SUBED SL LOGMU ST INBAL NIBIM ALUGU BAKSU KEPED OSLAK ROKUB UBONA TALID MAKOD UNIGA ABUTO TOBLO OGARA PINUG ADOBU GORAT OTPES GONTU GRUDA UNDUK ASGUL TOMKO BINKA TORLO UDAXI FLD GEVNI LEGSA TIMIB KUBAB NUVEN TAGOB BERIM DOBAK EEL EHAM12.8 hrs12.7 hrs205,643 lbAllan Burek